BIENTÔT MET'MAP
version 2.0 !

Prévue avant fin octobre,
la nouvelle version sera
plus belle, plus complète
et hébergée sur un serveur
3 fois plus puissant...
et toujours gratuite !


Pas compatible ?
Essayez la version Mobile !

SE CONNECTER : | S'inscrire | Disclaimer | Découvrir Orbifly |
Code OACI :
LŽgende : VFR VFR Marginal IFR IFR Intensif IFR TrŽs Intensif
Visi :
Plafond :
>= 8 km
>= 3000ft
5 ˆ 8 km
1000 ˆ 3000 ft
1500m ˆ 5 km
500 ˆ 1000 ft
800 ˆ 1500m
200 ˆ 500 ft
< 800m
< 200 ft

METAR - DAOO Es senia - Oran - 17 Sep 2019 06:14 UTC - Data Source NOAA   



- Altitude de l'aérodrome : 295 ft
- Code IATA : ORN
- Pas de NOTAMs connus.


DAOO - Es senia - Oran

Dernier METAR connu : 2015/08/11 08:00 DAOO 110800Z 17002KT 9999 FEW033 BKN100 29/22 Q1013
TAF TAF DAOO
Valide du 17 à 00h jusqu'au 18 à 00h UTC


162300Z 1700/1724 VRB02KT 9999 FEW020
TEMPO 1703/1708 2000 BR
BECMG 1709/1712 36012KT 9999 FEW026 BKN233
BECMG 1715/1718 07010KT 9999 SCT020 FEW026CB BKN233
BECMG 1719/1722 VRB02KT

Source NOAA


MET'MAP, la Météo Aéronautique d'un coup d'oeil ! - Copyright ORBIFLY Décembre 2007

Développement & Programmation : Alexandra Zaïnal
Co-Développement : Marc-Olivier Méhu
Soutien technique & logistique : Manuel Goepfert
Conception & Financement : Baudouin d'Aumeries